Weather reports worldwide

Advertisment
Langdon Bay, United Kingdom (3796): temperature & dewpoint: 14.11.2017 21:00:00 - 20.11.2017 21:00:00 (GMT)Langdon Bay, United Kingdom (3796): wind speed & gusts: 14.11.2017 21:00:00 - 20.11.2017 21:00:00 (GMT)Langdon Bay, United Kingdom (3796): wind direction: 14.11.2017 21:00:00 - 20.11.2017 21:00:00 (GMT)Langdon Bay, United Kingdom (3796): reduced air pressure: 14.11.2017 21:00:00 - 20.11.2017 21:00:00 (GMT)
Date & Time tt [°C] td [°C] ff [km/h] ff [kn] fx [km/h] fx [kn] dd ppp [hPa]
20.11.2017 21:00:00 - - - - - - - -
20.11.2017 20:00:00 11,4 10,9 18 10 - - WSW 1013,5
20.11.2017 19:00:00 11,5 10,9 24 13 - - WSW 1013,3
20.11.2017 18:00:00 11,4 10,9 28 15 - - WSW 1013,3
20.11.2017 17:00:00 11,3 10,7 22 12 46 25 WSW 1013,1
20.11.2017 16:00:00 11,1 10,8 29 16 46 25 WSW 1012,9
20.11.2017 15:00:00 11,0 10,5 24 13 - - WSW 1013,1
20.11.2017 14:00:00 11,6 9,8 29 16 52 28 WSW 1013,8
20.11.2017 13:00:00 11,5 9,7 26 14 46 25 WSW 1014,4
20.11.2017 12:00:00 10,9 9,3 28 15 52 28 WSW 1015,1
20.11.2017 11:00:00 10,3 9,2 29 16 46 25 WSW 1016,0
20.11.2017 10:00:00 9,5 9,0 22 12 - - WSW 1016,4
20.11.2017 09:00:00 9,2 8,8 24 13 - - W 1017,0
20.11.2017 08:00:00 9,0 8,8 21 11 - - W 1017,6
20.11.2017 07:00:00 9,5 9,4 24 13 - - WSW 1017,8
20.11.2017 06:00:00 9,3 8,7 21 11 - - WSW 1018,8
20.11.2017 05:00:00 8,9 6,5 15 8 - - WSW 1019,3
20.11.2017 04:00:00 7,5 4,7 13 7 - - SW 1019,8
20.11.2017 03:00:00 5,8 2,9 13 7 - - WSW 1020,8
20.11.2017 02:00:00 4,7 1,6 13 7 - - WSW 1021,7
20.11.2017 01:00:00 4,3 1,4 15 8 - - W 1022,5
20.11.2017 00:00:00 3,9 1,1 15 8 - - W 1023,4
19.11.2017 23:00:00 3,6 0,8 15 8 - - WNW 1024,0
19.11.2017 22:00:00 3,5 0,2 15 8 - - WNW 1024,1
19.11.2017 21:00:00 4,1 0,6 15 8 - - WNW 1024,0
19.11.2017 20:00:00 4,4 1,0 16 9 - - WNW 1023,8
19.11.2017 19:00:00 4,2 0,8 9 5 - - W 1024,2
19.11.2017 18:00:00 4,5 1,0 11 6 - - WNW 1024,0
19.11.2017 17:00:00 4,5 0,1 9 5 - - WNW 1024,0
19.11.2017 16:00:00 5,1 -0,4 9 5 - - WNW 1023,6
19.11.2017 15:00:00 7,2 -0,2 11 6 - - WNW 1023,4
19.11.2017 14:00:00 7,9 0,4 11 6 - - NW 1023,4
19.11.2017 13:00:00 8,3 1,7 16 9 - - NW 1023,4
19.11.2017 12:00:00 7,2 1,3 11 6 - - WNW 1023,4
19.11.2017 11:00:00 6,0 2,3 31 17 - - NW 1022,9
19.11.2017 10:00:00 4,8 1,8 28 15 - - NW 1022,9
19.11.2017 09:00:00 3,5 1,2 26 14 - - NW 1022,6
19.11.2017 08:00:00 2,4 0,7 26 14 - - NW 1022,2
19.11.2017 07:00:00 2,4 0,4 28 15 - - NW 1021,6
19.11.2017 06:00:00 2,3 0,7 26 14 - - NW 1021,2
19.11.2017 05:00:00 3,0 2,0 22 12 - - NW 1021,0
19.11.2017 04:00:00 3,3 2,4 15 8 - - NW 1021,0
19.11.2017 03:00:00 3,7 3,0 16 9 - - NW 1020,8
19.11.2017 02:00:00 4,1 3,2 16 9 - - NW 1020,5
19.11.2017 01:00:00 4,8 3,7 18 10 - - NW 1020,1
19.11.2017 00:00:00 5,6 4,2 22 12 - - NW 1020,0
18.11.2017 23:00:00 6,0 4,6 18 10 - - WNW 1019,8
18.11.2017 22:00:00 6,8 5,1 21 11 - - WNW 1019,8
18.11.2017 21:00:00 7,0 4,9 22 12 - - NW 1019,8
18.11.2017 20:00:00 7,0 5,1 18 10 - - NW 1019,7
18.11.2017 19:00:00 6,7 5,9 16 9 - - WNW 1019,7
18.11.2017 18:00:00 6,5 6,2 22 12 - - NW 1020,0
18.11.2017 17:00:00 7,7 7,6 11 6 - - NNW 1020,2
18.11.2017 16:00:00 8,0 7,9 15 8 - - W 1020,1
18.11.2017 15:00:00 7,7 7,6 15 8 - - W 1020,6
18.11.2017 14:00:00 7,4 7,3 16 9 - - W 1021,1
18.11.2017 13:00:00 7,1 6,7 13 7 - - W 1022,0
18.11.2017 12:00:00 7,9 5,6 26 14 - - W 1022,6
18.11.2017 11:00:00 8,4 4,3 22 12 - - W 1023,2
18.11.2017 10:00:00 6,9 3,8 21 11 - - W 1023,6
18.11.2017 09:00:00 4,9 2,0 16 9 - - W 1023,9
18.11.2017 08:00:00 3,5 0,9 16 9 - - W 1024,1
18.11.2017 07:00:00 2,8 0,1 16 9 - - W 1024,2
18.11.2017 06:00:00 3,9 -0,1 15 8 - - W 1024,3
18.11.2017 05:00:00 3,8 0,3 15 8 - - W 1024,6
18.11.2017 04:00:00 4,1 0,4 15 8 - - W 1025,0
18.11.2017 03:00:00 3,2 0,0 15 8 - - W 1025,7
18.11.2017 02:00:00 3,0 0,0 15 8 - - WNW 1026,2
18.11.2017 01:00:00 3,2 0,0 15 8 - - WNW 1026,7
18.11.2017 00:00:00 3,4 0,2 15 8 - - WNW 1027,1
17.11.2017 23:00:00 2,5 0,0 13 7 - - WNW 1027,5
17.11.2017 22:00:00 2,9 -0,2 15 8 - - W 1027,5
17.11.2017 21:00:00 2,8 0,0 13 7 - - WNW 1027,9
17.11.2017 20:00:00 3,0 0,1 15 8 - - NW 1028,0
17.11.2017 19:00:00 4,0 1,0 8 4 - - W 1028,0
17.11.2017 18:00:00 4,3 1,1 13 7 - - NW 1028,4
17.11.2017 17:00:00 4,0 1,0 16 9 - - NW 1028,3
17.11.2017 16:00:00 5,8 1,3 15 8 - - NNW 1028,2
17.11.2017 15:00:00 7,2 1,9 15 8 - - NNW 1028,3
17.11.2017 14:00:00 8,3 1,7 16 9 - - NNW 1028,6
17.11.2017 13:00:00 9,3 3,7 16 9 - - NNW 1028,9
17.11.2017 12:00:00 8,9 4,5 16 9 - - NNW 1029,1
17.11.2017 11:00:00 7,4 4,2 22 12 - - NNW 1029,4
17.11.2017 10:00:00 6,3 4,8 22 12 - - NNW 1029,4
17.11.2017 09:00:00 4,2 3,8 24 13 - - NNW 1029,4
17.11.2017 08:00:00 3,3 2,9 24 13 - - NNW 1029,5
17.11.2017 07:00:00 3,0 2,5 24 13 - - NNW 1029,1
17.11.2017 06:00:00 3,5 2,8 22 12 - - NNW 1028,8
17.11.2017 05:00:00 3,6 2,8 21 11 - - NNW 1028,6
17.11.2017 04:00:00 4,3 3,0 21 11 - - NNW 1028,2
17.11.2017 03:00:00 5,3 3,4 16 9 - - N 1027,9
17.11.2017 02:00:00 6,0 4,4 18 10 - - NNW 1027,7
17.11.2017 01:00:00 6,1 4,6 18 10 - - NNW 1027,6
17.11.2017 00:00:00 6,6 5,0 21 11 - - N 1027,1
16.11.2017 23:00:00 7,7 6,4 18 10 - - NNW 1026,6
16.11.2017 22:00:00 7,9 7,2 15 8 - - NNW 1026,4
16.11.2017 21:00:00 8,1 7,2 15 8 - - NNW 1025,9
16.11.2017 20:00:00 8,4 7,6 24 13 - - NNW 1025,1
16.11.2017 19:00:00 10,3 9,2 15 8 - - WNW 1024,5
16.11.2017 18:00:00 10,4 9,3 11 6 - - W 1023,9
16.11.2017 17:00:00 10,9 9,5 13 7 - - WSW 1023,2
16.11.2017 16:00:00 11,4 9,8 9 5 - - WSW 1022,9
16.11.2017 15:00:00 11,7 9,8 13 7 - - WSW 1022,6
16.11.2017 14:00:00 10,9 10,3 13 7 - - WSW 1022,5
16.11.2017 13:00:00 10,9 10,0 13 7 - - WSW 1022,6
16.11.2017 12:00:00 11,7 9,3 15 8 - - W 1022,7
16.11.2017 11:00:00 11,4 9,3 15 8 - - W 1023,1
16.11.2017 10:00:00 10,8 9,2 15 8 - - W 1023,0
16.11.2017 09:00:00 10,4 9,7 15 8 - - W 1022,8
16.11.2017 08:00:00 9,9 9,8 15 8 - - W 1022,6
16.11.2017 07:00:00 10,1 10,0 13 7 - - W 1022,1
16.11.2017 06:00:00 9,9 9,9 13 7 - - W 1022,0
16.11.2017 05:00:00 9,8 9,7 9 5 - - WSW 1021,9
16.11.2017 04:00:00 10,1 10,0 8 4 - - SW 1021,8
16.11.2017 03:00:00 10,0 9,9 8 4 - - WNW 1022,4
16.11.2017 02:00:00 10,4 10,3 11 6 - - W 1022,8
16.11.2017 01:00:00 10,3 10,2 8 4 - - WSW 1022,8
16.11.2017 00:00:00 10,3 10,2 8 4 - - W 1023,3
15.11.2017 23:00:00 10,3 10,2 4 2 - - E 1023,3
15.11.2017 22:00:00 10,0 9,9 5 3 - - NW 1023,7
15.11.2017 21:00:00 10,3 10,2 4 2 - - W 1023,9
15.11.2017 20:00:00 10,4 10,3 4 2 - - SW 1023,8
15.11.2017 19:00:00 9,8 9,5 8 4 - - WSW 1024,2
15.11.2017 18:00:00 10,6 10,3 2 1 - - WNW 1024,3
15.11.2017 17:00:00 10,5 9,9 4 2 - - WSW 1024,2
15.11.2017 16:00:00 11,0 10,3 5 3 - - W 1024,1
15.11.2017 15:00:00 10,9 10,3 4 2 - - SW 1024,5
15.11.2017 14:00:00 11,3 10,2 5 3 - - SW 1024,4
15.11.2017 13:00:00 11,0 9,9 5 3 - - SW 1024,4
15.11.2017 12:00:00 10,8 9,5 9 5 - - SW 1024,7
15.11.2017 11:00:00 10,8 9,6 9 5 - - SW 1025,0
15.11.2017 10:00:00 10,3 9,3 9 5 - - SSW 1025,0
15.11.2017 09:00:00 9,8 9,1 5 3 - - SW 1025,0
15.11.2017 08:00:00 9,2 8,6 8 4 - - WSW 1024,8
15.11.2017 07:00:00 8,8 7,7 9 5 - - W 1024,4
15.11.2017 06:00:00 9,4 8,1 13 7 - - W 1024,3
15.11.2017 05:00:00 9,7 8,3 16 9 - - W 1024,0
15.11.2017 04:00:00 9,4 8,6 13 7 - - WSW 1024,1
15.11.2017 03:00:00 9,7 8,7 13 7 - - WSW 1024,0
15.11.2017 02:00:00 9,7 8,9 11 6 - - WSW 1024,3
15.11.2017 01:00:00 9,9 8,8 13 7 - - W 1024,2
15.11.2017 00:00:00 9,7 8,8 15 8 - - W 1024,3
14.11.2017 23:00:00 9,8 8,9 15 8 - - W 1024,3
14.11.2017 22:00:00 9,7 8,7 15 8 - - W 1024,3
14.11.2017 21:00:00 9,6 8,5 15 8 - - W 1024,4

tt = temperature
td = dewpoint
ff = wind speed
fx = gusts
dd = wind direction
ppp = reduced air pressure

Next stations